Time;durP1;ratioP1;P1;durP2;ratioP2;P2;SDS_P1;SDS_P2;PMS_P1;PMS_P2;Temp;Humidity;BMP_temperature;BMP_pressure;BME280_temperature;BME280_humidity;BME280_pressure;Samples;Min_cycle;Max_cycle;Signal;HPM_P1;HPM_P2
2021/03/10 00:00:35;;;;;;;27.47;10.10;;;6.50;1.00;;;;;;5053376;28;20904;-75
2021/03/10 00:03:01;;;;;;;23.10;9.80;;;6.50;1.00;;;;;;5053896;28;20477;-74
2021/03/10 00:05:27;;;;;;;29.33;10.13;;;6.50;1.00;;;;;;5053513;28;20498;-75
2021/03/10 00:07:53;;;;;;;22.33;9.47;;;;;;;;;;5059594;28;20429;-75
2021/03/10 00:10:20;;;;;;;25.00;11.00;;;;;;;;;;5072318;28;20421;-75
2021/03/10 00:12:46;;;;;;;20.80;10.73;;;6.40;1.00;;;;;;5073554;28;20393;-75
2021/03/10 00:15:13;;;;;;;28.17;10.30;;;6.40;1.00;;;;;;5072574;28;20423;-75
2021/03/10 00:17:41;;;;;;;20.93;10.30;;;6.40;1.00;;;;;;5072315;28;20488;-75
2021/03/10 00:20:09;;;;;;;29.50;11.37;;;6.40;1.00;;;;;;5073556;28;20397;-75
2021/03/10 00:22:36;;;;;;;25.03;10.10;;;6.40;1.00;;;;;;5061488;28;20429;-75
2021/03/10 00:25:07;;;;;;;24.33;10.30;;;6.30;1.00;;;;;;5073164;28;20393;-75
2021/03/10 00:27:33;;;;;;;23.07;10.70;;;6.30;1.00;;;;;;5071955;28;20420;-75
2021/03/10 00:30:01;;;;;;;24.90;10.97;;;6.30;1.00;;;;;;5085473;28;20474;-75
2021/03/10 00:32:30;;;;;;;30.20;10.10;;;6.30;1.00;;;;;;5076310;28;20429;-75
2021/03/10 00:35:01;;;;;;;24.37;10.00;;;6.30;1.00;;;;;;5073567;28;20429;-71
2021/03/10 00:37:27;;;;;;;25.57;10.80;;;6.30;1.00;;;;;;5072595;28;20472;-71
2021/03/10 00:39:53;;;;;;;25.67;10.17;;;6.30;1.00;;;;;;5073073;28;20868;-71
2021/03/10 00:42:19;;;;;;;29.77;12.13;;;6.30;1.00;;;;;;5072966;28;20611;-71
2021/03/10 00:44:45;;;;;;;26.93;11.00;;;6.30;1.00;;;;;;5071163;28;20183;-71
2021/03/10 00:47:12;;;;;;;21.90;10.30;;;6.30;1.00;;;;;;5073013;28;20405;-71
2021/03/10 00:49:39;;;;;;;28.43;11.27;;;6.30;1.00;;;;;;5057657;28;20476;-74
2021/03/10 00:52:05;;;;;;;24.63;11.07;;;6.30;1.00;;;;;;5051706;28;20417;-75
2021/03/10 00:54:32;;;;;;;25.40;10.10;;;;;;;;;;5053072;28;20399;-75
2021/03/10 00:56:57;;;;;;;24.73;10.60;;;6.30;1.00;;;;;;5055996;28;20446;-75
2021/03/10 00:59:24;;;;;;;28.03;9.93;;;;;;;;;;5056593;28;20489;-75
2021/03/10 01:01:50;;;;;;;23.87;10.37;;;6.30;1.00;;;;;;5056619;28;20164;-75
2021/03/10 01:04:24;;;;;;;23.07;9.53;;;6.30;1.00;;;;;;5057292;28;20410;-75
2021/03/10 01:06:54;;;;;;;21.90;9.87;;;6.30;1.00;;;;;;5071907;28;20540;-75
2021/03/10 01:09:20;;;;;;;23.07;10.20;;;;;;;;;;5056594;28;20731;-76
2021/03/10 01:11:54;;;;;;;31.07;10.77;;;6.30;1.00;;;;;;5062550;28;20417;-75
2021/03/10 01:14:20;;;;;;;28.63;10.00;;;;;;;;;;5076327;28;20404;-75
2021/03/10 01:16:45;;;;;;;24.43;10.67;;;6.20;1.00;;;;;;5076278;28;20445;-75
2021/03/10 01:19:12;;;;;;;27.93;10.47;;;;;;;;;;5076185;28;20720;-71
2021/03/10 01:21:37;;;;;;;30.60;10.63;;;6.20;1.00;;;;;;5075967;28;20497;-71
2021/03/10 01:24:06;;;;;;;22.00;10.43;;;6.20;1.00;;;;;;5076006;28;20417;-71
2021/03/10 01:26:32;;;;;;;34.67;10.30;;;6.20;1.00;;;;;;5075229;28;20167;-71
2021/03/10 01:28:58;;;;;;;28.80;10.40;;;6.20;1.00;;;;;;5079513;28;20919;-71
2021/03/10 01:31:23;;;;;;;25.43;10.07;;;6.20;1.00;;;;;;5095898;28;20261;-71
2021/03/10 01:33:49;;;;;;;27.67;9.97;;;6.20;1.00;;;;;;5065052;28;20176;-74
2021/03/10 01:36:15;;;;;;;24.03;10.97;;;6.10;1.00;;;;;;5054054;28;20851;-75
2021/03/10 01:38:42;;;;;;;25.70;11.00;;;6.10;1.00;;;;;;5068477;28;20187;-75
2021/03/10 01:41:13;;;;;;;25.80;10.57;;;6.10;1.00;;;;;;5075920;28;20160;-75
2021/03/10 01:43:39;;;;;;;34.30;11.20;;;6.10;1.00;;;;;;5074856;28;20417;-75
2021/03/10 01:46:05;;;;;;;40.03;10.30;;;6.10;1.00;;;;;;5065302;28;20437;-75
2021/03/10 01:48:31;;;;;;;28.03;11.40;;;;;;;;;;5070491;28;20779;-75
2021/03/10 01:51:06;;;;;;;25.07;9.80;;;6.10;1.00;;;;;;5075986;28;20389;-75
2021/03/10 01:53:33;;;;;;;22.87;10.20;;;6.10;1.00;;;;;;5058940;28;20406;-75
2021/03/10 01:56:02;;;;;;;22.80;9.47;;;6.10;1.00;;;;;;5055440;28;20394;-75
2021/03/10 01:58:28;;;;;;;26.07;10.17;;;6.10;1.00;;;;;;5055417;28;20748;-75
2021/03/10 02:00:54;;;;;;;26.30;10.00;;;6.10;1.00;;;;;;5055748;28;20410;-75
2021/03/10 02:03:20;;;;;;;34.77;11.73;;;6.10;1.00;;;;;;5055372;28;20433;-75
2021/03/10 02:05:48;;;;;;;22.10;10.37;;;6.00;1.00;;;;;;5055783;28;20397;-75
2021/03/10 02:08:25;;;;;;;26.93;9.87;;;6.00;1.00;;;;;;5054233;28;20703;-75
2021/03/10 02:11:13;;;;;;;23.67;10.10;;;5.90;1.00;;;;;;5058874;28;20428;-75
2021/03/10 02:13:53;;;;;;;22.80;10.70;;;5.90;1.00;;;;;;5065206;28;20429;-75
2021/03/10 02:16:53;;;;;;;35.05;11.10;;;5.80;1.00;;;;;;5055125;28;20495;-75
2021/03/10 02:19:45;;;;;;;28.38;10.60;;;5.80;1.00;;;;;;5072439;28;20175;-75
2021/03/10 02:22:20;;;;;;;20.80;8.50;;;5.70;1.00;;;;;;5075186;28;20162;-75
2021/03/10 02:25:31;;;;;;;25.23;9.63;;;5.70;1.00;;;;;;5074484;28;20393;-75
2021/03/10 02:28:02;;;;;;;30.98;11.00;;;5.70;1.00;;;;;;5007972;28;20279;-75
2021/03/10 02:30:45;;;;;;;24.92;9.98;;;5.70;1.00;;;;;;5009312;28;20590;-75
2021/03/10 02:33:16;;;;;;;31.35;10.20;;;5.80;1.00;;;;;;5012893;28;20508;-75
2021/03/10 02:35:51;;;;;;;24.30;10.17;;;5.80;1.00;;;;;;5013142;28;20243;-71
2021/03/10 02:38:20;;;;;;;25.73;10.17;;;5.80;1.00;;;;;;5012557;28;20829;-71
2021/03/10 02:40:48;;;;;;;23.97;10.50;;;5.70;1.00;;;;;;5011138;28;20428;-71
2021/03/10 02:43:14;;;;;;;23.95;10.63;;;5.80;1.00;;;;;;5012432;28;20447;-71
2021/03/10 02:45:41;;;;;;;23.87;10.50;;;5.80;1.00;;;;;;5009693;28;20262;-71
2021/03/10 02:48:07;;;;;;;23.33;9.50;;;5.80;1.00;;;;;;5008220;28;20444;-71
2021/03/10 02:50:34;;;;;;;24.07;10.07;;;5.80;1.00;;;;;;5012589;28;20540;-71
2021/03/10 02:53:03;;;;;;;23.47;9.97;;;5.80;1.00;;;;;;5000463;28;20420;-71
2021/03/10 02:55:31;;;;;;;26.37;9.83;;;5.70;1.00;;;;;;5003057;28;21100;-71
2021/03/10 02:57:58;;;;;;;22.67;9.30;;;5.80;1.00;;;;;;5012332;28;20467;-71
2021/03/10 03:00:25;;;;;;;20.00;9.13;;;5.80;1.00;;;;;;5012204;28;20161;-71
2021/03/10 03:02:51;;;;;;;22.40;10.30;;;5.80;1.00;;;;;;5012095;28;20435;-71
2021/03/10 03:05:18;;;;;;;24.70;9.87;;;5.80;1.00;;;;;;5059296;28;20465;-75
2021/03/10 03:07:47;;;;;;;27.67;10.20;;;5.80;1.00;;;;;;5074267;28;20484;-75
2021/03/10 03:10:24;;;;;;;24.13;9.20;;;5.80;1.00;;;;;;5063366;28;20418;-75
2021/03/10 03:12:51;;;;;;;27.03;10.13;;;5.80;1.00;;;;;;5054307;28;20394;-75
2021/03/10 03:15:20;;;;;;;27.57;9.70;;;5.90;1.00;;;;;;5052645;28;20781;-75
2021/03/10 03:17:47;;;;;;;25.08;10.43;;;5.80;1.00;;;;;;5053583;28;20443;-75
2021/03/10 03:20:22;;;;;;;23.53;10.30;;;5.80;1.00;;;;;;5054086;28;20270;-75
2021/03/10 03:22:50;;;;;;;22.25;10.32;;;5.80;1.00;;;;;;5053859;28;20401;-75
2021/03/10 03:25:24;;;;;;;25.20;10.70;;;5.80;1.00;;;;;;5052948;28;20525;-75
2021/03/10 03:27:58;;;;;;;27.17;9.60;;;5.70;1.00;;;;;;5062143;28;20507;-75
2021/03/10 03:30:25;;;;;;;22.97;9.33;;;5.80;1.00;;;;;;5093971;28;20428;-75
2021/03/10 03:32:54;;;;;;;23.85;10.25;;;5.80;1.00;;;;;;5093986;28;20875;-75
2021/03/10 03:35:20;;;;;;;24.90;9.50;;;5.80;1.00;;;;;;5094609;28;20212;-71
2021/03/10 03:37:48;;;;;;;19.00;8.90;;;5.80;1.00;;;;;;5093614;28;20830;-71
2021/03/10 03:40:16;;;;;;;22.85;9.45;;;5.80;1.00;;;;;;5077343;28;20939;-72
2021/03/10 03:42:42;;;;;;;25.07;9.87;;;5.80;1.00;;;;;;5073525;28;20186;-72
2021/03/10 03:45:08;;;;;;;18.13;8.97;;;5.80;1.00;;;;;;5073483;28;20884;-71
2021/03/10 03:47:35;;;;;;;28.00;9.80;;;5.80;1.00;;;;;;5071652;28;20760;-71
2021/03/10 03:50:01;;;;;;;31.80;11.23;;;5.80;1.00;;;;;;5073831;28;20484;-72
2021/03/10 03:52:27;;;;;;;25.77;10.00;;;;;;;;;;5065797;28;20817;-72
2021/03/10 03:54:53;;;;;;;21.80;8.60;;;5.80;1.00;;;;;;5053720;28;20763;-71
2021/03/10 03:57:18;;;;;;;23.10;9.50;;;5.80;1.00;;;;;;5053384;28;20439;-71
2021/03/10 03:59:44;;;;;;;28.53;9.43;;;5.80;1.00;;;;;;5059370;28;20175;-71
2021/03/10 04:02:10;;;;;;;23.10;9.70;;;;;;;;;;5073313;28;20221;-71
2021/03/10 04:04:35;;;;;;;24.92;8.63;;;5.70;1.00;;;;;;5073352;28;20163;-71
2021/03/10 04:07:02;;;;;;;24.10;10.40;;;5.70;1.00;;;;;;5073769;28;20159;-71
2021/03/10 04:09:28;;;;;;;22.27;9.70;;;5.70;1.00;;;;;;5060568;28;20175;-71
2021/03/10 04:11:54;;;;;;;22.53;9.30;;;5.70;1.00;;;;;;5053328;28;20726;-71
2021/03/10 04:14:20;;;;;;;20.23;9.87;;;5.70;1.00;;;;;;5052964;28;20163;-72
2021/03/10 04:16:54;;;;;;;23.43;9.20;;;5.80;1.00;;;;;;5051887;28;20514;-71
2021/03/10 04:19:20;;;;;;;25.17;10.20;;;;;;;;;;5052953;28;20741;-72
2021/03/10 04:21:45;;;;;;;17.93;8.80;;;5.80;1.00;;;;;;5053410;28;20152;-71
2021/03/10 04:24:11;;;;;;;23.83;10.30;;;5.70;1.00;;;;;;5053433;28;21003;-72
2021/03/10 04:26:37;;;;;;;31.30;10.07;;;5.70;1.00;;;;;;5057151;28;20250;-71
2021/03/10 04:29:03;;;;;;;31.30;9.20;;;;;;;;;;5072832;28;20203;-71
2021/03/10 04:31:30;;;;;;;27.00;9.60;;;5.70;1.00;;;;;;5077180;28;20170;-74
2021/03/10 04:33:55;;;;;;;23.90;9.37;;;5.70;1.00;;;;;;5077282;28;20751;-73
2021/03/10 04:36:30;;;;;;;17.73;8.33;;;7.30;1.00;;;;;;5077675;28;20513;-83
2021/03/10 04:39:47;;;;;;;21.25;8.00;;;5.70;1.00;;;;;;5075072;28;20588;-86
2021/03/10 04:42:41;;;;;;;21.07;9.00;;;5.70;1.00;;;;;;5076950;28;20243;-83
2021/03/10 04:45:47;;;;;;;20.30;8.63;;;5.70;1.00;;;;;;5077020;28;20439;-83
2021/03/10 04:48:13;;;;;;;24.07;9.37;;;5.70;1.00;;;;;;5069098;28;20441;-75
2021/03/10 04:50:42;;;;;;;25.60;9.03;;;5.70;1.00;;;;;;5057844;28;20438;-75
2021/03/10 04:53:18;;;;;;;26.03;8.90;;;5.70;1.00;;;;;;5064723;28;20167;-75
2021/03/10 04:55:44;;;;;;;20.63;9.10;;;5.70;1.00;;;;;;5076830;28;20385;-75
2021/03/10 04:58:10;;;;;;;18.73;9.10;;;;;;;;;;5075421;28;20452;-76
2021/03/10 05:00:36;;;;;;;27.50;9.98;;;;;;;;;;5076645;28;20152;-75
2021/03/10 05:03:06;;;;;;;26.83;10.20;;;5.70;1.00;;;;;;5075269;28;20174;-75
2021/03/10 05:05:36;;;;;;;21.73;9.90;;;5.70;1.00;;;;;;5075074;28;20438;-70
2021/03/10 05:08:02;;;;;;;29.20;10.73;;;5.70;1.00;;;;;;5067869;28;20180;-71
2021/03/10 05:10:28;;;;;;;17.63;7.67;;;5.70;1.00;;;;;;5077387;28;20178;-71
2021/03/10 05:12:54;;;;;;;25.57;9.30;;;5.70;1.00;;;;;;5075770;28;20440;-71
2021/03/10 05:15:20;;;;;;;21.02;9.50;;;;;;;;;;5088247;28;20705;-71
2021/03/10 05:17:45;;;;;;;22.42;9.02;;;5.70;1.00;;;;;;5096308;28;20243;-71
2021/03/10 05:20:12;;;;;;;24.87;9.87;;;5.70;1.00;;;;;;5072915;28;20183;-72
2021/03/10 05:22:38;;;;;;;20.63;9.57;;;;;;;;;;5056664;28;20187;-71
2021/03/10 05:25:07;;;;;;;18.30;8.73;;;5.70;1.00;;;;;;5055985;28;20387;-71
2021/03/10 05:27:33;;;;;;;20.70;9.20;;;5.70;1.00;;;;;;5055726;28;20919;-71
2021/03/10 05:30:05;;;;;;;16.10;7.50;;;5.60;1.00;;;;;;5068027;28;20187;-71
2021/03/10 05:32:37;;;;;;;23.60;9.23;;;5.70;1.00;;;;;;5075727;28;20464;-71
2021/03/10 05:35:03;;;;;;;18.67;7.93;;;5.70;1.00;;;;;;5075975;28;20478;-71
2021/03/10 05:37:29;;;;;;;20.40;8.67;;;5.70;1.00;;;;;;5067398;28;20468;-75
2021/03/10 05:39:55;;;;;;;22.63;9.77;;;;;;;;;;5056153;28;20756;-75
2021/03/10 05:42:21;;;;;;;15.67;7.27;;;5.60;1.00;;;;;;5055122;28;20472;-75
2021/03/10 05:44:53;;;;;;;22.57;9.00;;;5.70;1.00;;;;;;5066309;28;20417;-75
2021/03/10 05:47:24;;;;;;;20.20;8.90;;;5.60;1.00;;;;;;5075876;28;20401;-75
2021/03/10 05:49:54;;;;;;;21.63;8.77;;;5.70;1.00;;;;;;5071646;28;20528;-75
2021/03/10 05:52:22;;;;;;;15.40;8.03;;;5.70;1.00;;;;;;5072991;28;20769;-71
2021/03/10 05:54:51;;;;;;;18.88;8.45;;;5.60;1.00;;;;;;5061801;28;20418;-71
2021/03/10 05:57:18;;;;;;;20.20;9.88;;;5.70;1.00;;;;;;5074327;28;20202;-71
2021/03/10 05:59:44;;;;;;;24.20;8.60;;;;;;;;;;5095200;28;20154;-72
2021/03/10 06:02:10;;;;;;;19.13;8.68;;;;;;;;;;5084341;28;20454;-71
2021/03/10 06:04:37;;;;;;;23.13;8.73;;;5.60;1.00;;;;;;5076534;28;20179;-71
2021/03/10 06:07:03;;;;;;;25.70;9.27;;;5.60;1.00;;;;;;5072928;28;20861;-72
2021/03/10 06:09:29;;;;;;;24.77;10.43;;;;;;;;;;5066263;28;20421;-71
2021/03/10 06:12:13;;;;;;;20.10;8.80;;;5.70;1.00;;;;;;5074524;28;20185;-71
2021/03/10 06:14:39;;;;;;;23.73;9.30;;;5.60;1.00;;;;;;5053834;28;20508;-71
2021/03/10 06:17:09;;;;;;;18.90;9.00;;;5.70;1.00;;;;;;5081919;28;20874;-71
2021/03/10 06:19:48;;;;;;;22.77;8.82;;;5.70;1.00;;;;;;5085860;28;20177;-71
2021/03/10 06:22:15;;;;;;;25.52;9.52;;;5.80;1.00;;;;;;5074422;28;20246;-72
2021/03/10 06:24:40;;;;;;;18.43;8.00;;;5.90;1.00;;;;;;5074039;28;20520;-72
2021/03/10 06:27:07;;;;;;;18.50;8.17;;;6.00;1.00;;;;;;5072373;28;20397;-71
2021/03/10 06:29:33;;;;;;;29.73;9.87;;;;;;;;;;5062948;28;20425;-74
2021/03/10 06:32:07;;;;;;;20.50;9.37;;;6.10;1.00;;;;;;5074230;28;20438;-71
2021/03/10 06:34:59;;;;;;;25.53;9.63;;;6.20;1.00;;;;;;5069610;28;20424;-71
2021/03/10 06:37:32;;;;;;;17.98;7.97;;;6.20;1.00;;;;;;5054762;28;20521;-71
2021/03/10 06:40:11;;;;;;;12.73;7.00;;;6.50;1.00;;;;;;5067370;28;20171;-71
2021/03/10 06:42:37;;;;;;;22.47;9.27;;;;;;;;;;5073721;28;20390;-71
2021/03/10 06:45:05;;;;;;;24.83;10.27;;;6.70;1.00;;;;;;5073519;28;20429;-72
2021/03/10 06:47:38;;;;;;;19.87;9.50;;;6.80;1.00;;;;;;5073661;28;20409;-71
2021/03/10 06:50:06;;;;;;;21.57;9.80;;;6.80;1.00;;;;;;5071428;28;20425;-71
2021/03/10 06:52:32;;;;;;;18.10;8.70;;;;;;;;;;5072858;28;20814;-75
2021/03/10 06:55:00;;;;;;;22.57;10.63;;;6.80;1.00;;;;;;5073164;28;20393;-75
2021/03/10 06:57:26;;;;;;;17.13;8.70;;;;;;;;;;5073419;28;20487;-75
2021/03/10 06:59:54;;;;;;;22.77;9.17;;;6.90;1.00;;;;;;5073485;28;20385;-75
2021/03/10 07:02:28;;;;;;;21.13;9.87;;;6.80;1.00;;;;;;5073478;28;20385;-75
2021/03/10 07:04:58;;;;;;;20.50;9.27;;;6.80;1.00;;;;;;5073250;28;20405;-75
2021/03/10 07:07:25;;;;;;;21.33;8.10;;;;;;;;;;5073710;28;20883;-72
2021/03/10 07:09:51;;;;;;;21.30;9.20;;;6.90;1.00;;;;;;5078170;28;20416;-71
2021/03/10 07:12:19;;;;;;;22.50;9.87;;;6.90;1.00;;;;;;5072103;28;20421;-71
2021/03/10 07:14:46;;;;;;;23.53;9.53;;;;;;;;;;5088648;28;20404;-71
2021/03/10 07:17:14;;;;;;;21.40;9.37;;;7.00;1.00;;;;;;5093201;28;20440;-71
2021/03/10 07:19:42;;;;;;;26.47;11.43;;;7.00;1.00;;;;;;5092845;28;20462;-71
2021/03/10 07:22:10;;;;;;;16.07;8.50;;;7.00;1.00;;;;;;5093914;28;20491;-71
2021/03/10 07:24:53;;;;;;;26.13;9.27;;;7.00;1.00;;;;;;5093190;28;20396;-71
2021/03/10 07:27:20;;;;;;;23.63;10.20;;;7.00;1.00;;;;;;5091899;28;20412;-71
2021/03/10 07:29:46;;;;;;;20.23;9.90;;;7.10;1.00;;;;;;5079923;28;20482;-71
2021/03/10 07:32:21;;;;;;;20.90;9.13;;;7.10;1.00;;;;;;5072801;28;20397;-72
2021/03/10 07:34:47;;;;;;;17.67;8.73;;;;;;;;;;5072769;28;20455;-72
2021/03/10 07:37:14;;;;;;;20.77;9.67;;;7.30;1.00;;;;;;5060912;28;20466;-75
2021/03/10 07:39:41;;;;;;;18.03;8.23;;;;;;;;;;5072015;28;20400;-75
2021/03/10 07:42:14;;;;;;;24.10;10.00;;;7.40;1.00;;;;;;5072750;28;20401;-75
2021/03/10 07:44:41;;;;;;;19.57;8.40;;;;;;;;;;5072774;28;20439;-75
2021/03/10 07:47:09;;;;;;;23.03;10.47;;;7.60;1.00;;;;;;5072876;28;20408;-75
2021/03/10 07:49:39;;;;;;;22.70;10.00;;;7.70;1.00;;;;;;5072444;28;20402;-75
2021/03/10 07:52:10;;;;;;;20.90;8.80;;;7.80;1.00;;;;;;5068282;28;20417;-74
2021/03/10 07:54:40;;;;;;;20.27;9.30;;;7.90;1.00;;;;;;5072625;28;20775;-77
2021/03/10 07:57:14;;;;;;;18.67;9.70;;;8.00;1.00;;;;;;5072595;28;20437;-77
2021/03/10 07:59:51;;;;;;;21.87;9.80;;;8.00;1.00;;;;;;5072672;28;20420;-77
2021/03/10 08:02:17;;;;;;;19.83;9.27;;;;;;;;;;5072586;28;20420;-77
2021/03/10 08:04:56;;;;;;;21.43;9.37;;;8.10;1.00;;;;;;5073914;28;20389;-77
2021/03/10 08:07:26;;;;;;;18.90;9.40;;;8.20;1.00;;;;;;5057123;28;20406;-72
2021/03/10 08:09:53;;;;;;;19.97;8.60;;;8.20;1.00;;;;;;5071391;28;20923;-72
2021/03/10 08:12:31;;;;;;;19.90;8.47;;;8.30;1.00;;;;;;5091977;28;20523;-72
2021/03/10 08:14:57;;;;;;;25.30;9.77;;;;;;;;;;5076158;28;20403;-72
2021/03/10 08:17:24;;;;;;;22.83;9.40;;;8.30;1.00;;;;;;5076286;28;20452;-72
2021/03/10 08:19:54;;;;;;;22.47;9.33;;;8.30;1.00;;;;;;5074522;28;20915;-72
2021/03/10 08:22:27;;;;;;;20.33;9.20;;;8.20;1.00;;;;;;5076479;28;20398;-76
2021/03/10 08:24:55;;;;;;;17.63;8.90;;;8.20;1.00;;;;;;5074723;28;20949;-77
2021/03/10 08:27:34;;;;;;;18.60;8.10;;;8.20;1.00;;;;;;5076517;28;20871;-76
2021/03/10 08:30:03;;;;;;;20.87;9.80;;;8.20;1.00;;;;;;5082050;28;20520;-76
2021/03/10 08:32:31;;;;;;;20.27;9.00;;;8.40;1.00;;;;;;5070275;28;20425;-76
2021/03/10 08:35:10;;;;;;;23.40;8.43;;;8.50;1.00;;;;;;5079436;28;20429;-76
2021/03/10 08:37:36;;;;;;;33.20;9.27;;;8.70;1.00;;;;;;5075250;28;20506;-72
2021/03/10 08:40:04;;;;;;;19.70;8.93;;;8.80;1.00;;;;;;5074965;28;20424;-72
2021/03/10 08:42:30;;;;;;;22.33;8.97;;;;;;;;;;5072225;28;20424;-72
2021/03/10 08:44:56;;;;;;;18.37;9.17;;;;;;;;;;5071367;28;20500;-71
2021/03/10 08:47:26;;;;;;;16.37;8.80;;;8.70;1.00;;;;;;5064110;28;20911;-72
2021/03/10 08:49:58;;;;;;;19.47;9.00;;;8.90;1.00;;;;;;5075764;28;20420;-71
2021/03/10 08:52:25;;;;;;;23.50;9.83;;;9.00;1.00;;;;;;5073950;28;20478;-72
2021/03/10 08:54:59;;;;;;;17.10;8.53;;;9.10;1.00;;;;;;5068066;28;20829;-72
2021/03/10 08:57:25;;;;;;;20.07;8.47;;;;;;;;;;5055870;28;20442;-72
2021/03/10 08:59:51;;;;;;;17.17;8.13;;;9.10;1.00;;;;;;5055665;28;20468;-72
2021/03/10 09:02:43;;;;;;;26.23;9.80;;;9.10;1.00;;;;;;5056264;28;20462;-71
2021/03/10 09:05:12;;;;;;;14.67;8.10;;;9.10;1.00;;;;;;5074738;28;20467;-71
2021/03/10 09:07:38;;;;;;;13.90;6.80;;;;;;;;;;5075235;28;20500;-72
2021/03/10 09:10:16;;;;;;;18.07;7.80;;;9.30;1.00;;;;;;5075188;28;20492;-76
2021/03/10 09:12:44;;;;;;;19.00;8.30;;;9.50;1.00;;;;;;5095876;28;20393;-76
2021/03/10 09:15:12;;;;;;;18.20;8.33;;;9.80;1.00;;;;;;5067805;28;20503;-76
2021/03/10 09:17:39;;;;;;;22.17;8.93;;;;;;;;;;5064985;28;20459;-76
2021/03/10 09:20:12;;;;;;;15.63;8.20;;;9.80;1.00;;;;;;5075120;28;20443;-77
2021/03/10 09:22:45;;;;;;;19.43;9.20;;;9.90;1.00;;;;;;5075451;28;20881;-76
2021/03/10 09:25:16;;;;;;;33.83;10.07;;;9.90;1.00;;;;;;5074120;28;20437;-76
2021/03/10 09:27:42;;;;;;;18.03;8.90;;;;;;;;;;5075662;28;20577;-76
2021/03/10 09:30:17;;;;;;;21.90;9.30;;;9.90;1.00;;;;;;5088507;28;20424;-76
2021/03/10 09:32:45;;;;;;;20.07;8.53;;;9.90;1.00;;;;;;5095406;28;20449;-76
2021/03/10 09:35:20;;;;;;;19.13;8.37;;;9.90;1.00;;;;;;5095574;28;20919;-77
2021/03/10 09:37:56;;;;;;;19.87;8.23;;;9.80;1.00;;;;;;5095339;28;20459;-76
2021/03/10 09:40:53;;;;;;;17.20;7.27;;;10.00;1.00;;;;;;5081725;28;20412;-76
2021/03/10 09:43:20;;;;;;;18.27;8.70;;;10.00;1.00;;;;;;4993895;28;20474;-76
2021/03/10 09:45:47;;;;;;;15.60;7.43;;;10.10;1.00;;;;;;4993559;28;20946;-76
2021/03/10 09:48:18;;;;;;;17.97;8.60;;;10.20;1.00;;;;;;4994796;28;20949;-76
2021/03/10 09:50:48;;;;;;;13.60;7.43;;;10.30;1.00;;;;;;5012894;28;20374;-76
2021/03/10 09:53:25;;;;;;;20.57;8.40;;;10.30;1.00;;;;;;5008135;28;20439;-71
2021/03/10 09:56:02;;;;;;;19.30;8.87;;;10.40;1.00;;;;;;5009683;28;20444;-71
2021/03/10 09:58:28;;;;;;;19.40;9.23;;;;;;;;;;4995944;28;20563;-72
2021/03/10 10:01:01;;;;;;;15.00;8.13;;;10.50;1.00;;;;;;5012642;28;20766;-72
2021/03/10 10:03:28;;;;;;;16.77;8.50;;;10.60;1.00;;;;;;5010122;28;20515;-71
2021/03/10 10:06:10;;;;;;;15.10;7.80;;;10.60;1.00;;;;;;5012528;28;20570;-72
2021/03/10 10:08:36;;;;;;;17.80;8.60;;;10.50;1.00;;;;;;5012898;28;20502;-72
2021/03/10 10:11:06;;;;;;;17.33;7.90;;;10.60;1.00;;;;;;5009054;28;20590;-71
2021/03/10 10:13:32;;;;;;;26.37;9.40;;;10.60;1.00;;;;;;4991766;28;20817;-72
2021/03/10 10:15:58;;;;;;;23.00;9.70;;;;;;;;;;5012067;28;20404;-72
2021/03/10 10:18:24;;;;;;;22.10;9.60;;;10.70;1.00;;;;;;5006132;28;20464;-71
2021/03/10 10:20:50;;;;;;;16.90;8.40;;;10.70;1.00;;;;;;5038458;28;20419;-71
2021/03/10 10:23:16;;;;;;;18.07;8.97;;;;;;;;;;5054206;28;20448;-71
2021/03/10 10:25:42;;;;;;;13.60;6.87;;;;;;;;;;5054482;28;20403;-72
2021/03/10 10:28:08;;;;;;;17.33;7.47;;;;;;;;;;5072607;28;20421;-71
2021/03/10 10:30:34;;;;;;;26.30;8.73;;;;;;;;;;5090956;28;20417;-71
2021/03/10 10:33:00;;;;;;;19.07;8.10;;;;;;;;;;5094290;28;20727;-71
2021/03/10 10:35:26;;;;;;;20.00;8.20;;;;;;;;;;5084202;28;20503;-71
2021/03/10 10:37:52;;;;;;;18.53;7.53;;;;;;;;;;5073706;28;20564;-71
2021/03/10 10:40:20;;;;;;;16.90;8.53;;;10.00;1.00;;;;;;5073999;28;20416;-71
2021/03/10 10:42:46;;;;;;;20.70;9.00;;;;;;;;;;5073817;28;20390;-71
2021/03/10 10:45:13;;;;;;;23.60;8.20;;;10.20;1.00;;;;;;5073499;28;20892;-71
2021/03/10 10:47:40;;;;;;;22.20;8.27;;;10.30;1.00;;;;;;5073713;28;20485;-71
2021/03/10 10:50:07;;;;;;;19.83;7.97;;;10.30;1.00;;;;;;5072799;28;21138;-71
2021/03/10 10:52:37;;;;;;;23.43;8.57;;;10.30;1.00;;;;;;5068433;28;20449;-71
2021/03/10 10:55:07;;;;;;;20.27;8.27;;;10.50;1.00;;;;;;5071404;28;20429;-71
2021/03/10 10:57:33;;;;;;;21.50;9.07;;;10.60;1.00;;;;;;5073393;28;20457;-71
2021/03/10 10:59:59;;;;;;;19.20;8.73;;;;;;;;;;5073298;28;20449;-71
2021/03/10 11:02:25;;;;;;;19.03;8.07;;;;;;;;;;5073402;28;20587;-71
2021/03/10 11:04:50;;;;;;;16.17;8.27;;;11.00;1.00;;;;;;5073264;28;20393;-72
2021/03/10 11:07:16;;;;;;;21.13;8.53;;;;;;;;;;5072616;28;20413;-72
2021/03/10 11:09:43;;;;;;;19.93;9.07;;;;;;;;;;5072273;28;20210;-72
2021/03/10 11:12:11;;;;;;;24.07;9.23;;;11.30;1.00;;;;;;5091461;28;20419;-71
2021/03/10 11:14:40;;;;;;;20.50;9.27;;;11.30;1.00;;;;;;5082009;28;20435;-71
2021/03/10 11:17:07;;;;;;;20.50;9.23;;;11.40;1.00;;;;;;5073025;28;20463;-71
2021/03/10 11:19:33;;;;;;;19.00;9.20;;;11.60;1.00;;;;;;5072812;28;20397;-71
2021/03/10 11:22:01;;;;;;;18.67;8.63;;;;;;;;;;5072356;28;20425;-71
2021/03/10 11:24:27;;;;;;;20.50;9.27;;;;;;;;;;5073145;28;20441;-71
2021/03/10 11:26:53;;;;;;;26.97;9.67;;;11.80;1.00;;;;;;5072987;28;20868;-71
2021/03/10 11:29:19;;;;;;;17.60;8.60;;;;;;;;;;5079475;28;20452;-71
2021/03/10 11:31:45;;;;;;;24.47;8.93;;;;;;;;;;5093259;28;20215;-71
2021/03/10 11:34:12;;;;;;;18.77;9.50;;;11.70;1.00;;;;;;5093159;28;20395;-71
2021/03/10 11:36:38;;;;;;;18.93;9.10;;;11.70;1.00;;;;;;5084217;28;20470;-71
2021/03/10 11:39:04;;;;;;;20.13;9.13;;;11.60;1.00;;;;;;5072136;28;20480;-71
2021/03/10 11:41:30;;;;;;;21.23;9.63;;;;;;;;;;5073364;28;20291;-76
2021/03/10 11:43:56;;;;;;;22.07;10.10;;;;;;;;;;5072873;28;20386;-76
2021/03/10 11:46:21;;;;;;;20.00;9.33;;;12.20;1.00;;;;;;5071659;28;20406;-76
2021/03/10 11:48:47;;;;;;;19.20;9.87;;;;;;;;;;5072867;28;20401;-76
2021/03/10 11:51:13;;;;;;;18.80;9.70;;;12.50;1.00;;;;;;5074675;28;20171;-76
2021/03/10 11:53:39;;;;;;;22.47;9.53;;;12.70;1.00;;;;;;5064542;28;20401;-76
2021/03/10 11:56:04;;;;;;;20.53;10.03;;;12.70;1.00;;;;;;5065532;28;20666;-76
2021/03/10 11:58:30;;;;;;;21.53;9.67;;;;;;;;;;5064772;28;20207;-76
2021/03/10 12:00:56;;;;;;;27.73;10.07;;;12.60;1.00;;;;;;5061305;28;20228;-77
2021/03/10 12:03:22;;;;;;;19.60;9.10;;;;;;;;;;5072821;28;20817;-76
2021/03/10 12:05:48;;;;;;;23.07;10.17;;;12.90;1.00;;;;;;5072454;28;20529;-77
2021/03/10 12:08:14;;;;;;;23.20;11.10;;;13.00;1.00;;;;;;5072696;28;20414;-76
2021/03/10 12:10:41;;;;;;;21.60;9.90;;;13.00;1.00;;;;;;5078899;28;20232;-76
2021/03/10 12:13:10;;;;;;;21.30;9.87;;;12.90;1.00;;;;;;5071207;28;20401;-76
2021/03/10 12:15:37;;;;;;;22.70;10.07;;;12.90;1.00;;;;;;5072231;28;20397;-76
2021/03/10 12:18:03;;;;;;;19.70;8.90;;;13.00;1.00;;;;;;5072391;28;20449;-76
2021/03/10 12:20:28;;;;;;;21.80;9.90;;;13.00;1.00;;;;;;5072262;28;20376;-76
2021/03/10 12:22:54;;;;;;;21.60;10.10;;;;;;;;;;5071823;28;20328;-76
2021/03/10 12:25:21;;;;;;;22.17;10.40;;;13.30;1.00;;;;;;5069027;28;20187;-71
2021/03/10 12:27:46;;;;;;;21.47;9.63;;;13.40;1.00;;;;;;5064242;28;20409;-71
2021/03/10 12:30:13;;;;;;;23.87;11.30;;;13.30;1.00;;;;;;5074246;28;20434;-71
2021/03/10 12:32:38;;;;;;;23.40;9.90;;;13.20;1.00;;;;;;5072280;28;20187;-71
2021/03/10 12:35:05;;;;;;;22.37;9.60;;;13.40;1.00;;;;;;5069698;28;20768;-72
2021/03/10 12:37:31;;;;;;;20.80;9.43;;;13.40;1.00;;;;;;5066209;28;20218;-71
2021/03/10 12:39:57;;;;;;;18.63;9.13;;;;;;;;;;5059683;28;20422;-76
2021/03/10 12:42:23;;;;;;;20.80;9.07;;;13.40;1.00;;;;;;5052368;28;20164;-76
2021/03/10 12:44:49;;;;;;;19.60;8.37;;;;;;;;;;5065002;28;20426;-76
2021/03/10 12:47:15;;;;;;;22.53;9.10;;;13.30;1.00;;;;;;5072585;28;20237;-76
2021/03/10 12:49:41;;;;;;;17.70;8.10;;;13.10;1.00;;;;;;5057131;28;20418;-76
2021/03/10 12:52:08;;;;;;;15.87;7.70;;;;;;;;;;5060557;28;20880;-75
2021/03/10 12:54:35;;;;;;;18.17;6.87;;;;;;;;;;5073973;28;20413;-78
2021/03/10 12:57:01;;;;;;;15.33;7.23;;;;;;;;;;5074049;28;20472;-71
2021/03/10 12:59:27;;;;;;;13.97;7.63;;;;;;;;;;5075663;28;20389;-71
2021/03/10 13:01:53;;;;;;;16.73;7.27;;;;;;;;;;5063664;28;20413;-71
2021/03/10 13:04:18;;;;;;;16.40;7.77;;;12.90;1.00;;;;;;5068795;28;20489;-71
2021/03/10 13:06:47;;;;;;;17.77;7.73;;;13.20;1.00;;;;;;5075464;28;20957;-71
2021/03/10 13:09:13;;;;;;;14.30;7.53;;;13.30;1.00;;;;;;5055440;28;20623;-71
2021/03/10 13:11:40;;;;;;;24.37;8.27;;;13.30;1.00;;;;;;5083837;28;20784;-76
2021/03/10 13:14:06;;;;;;;17.97;8.40;;;;;;;;;;5095559;28;20456;-77
2021/03/10 13:16:32;;;;;;;13.83;7.27;;;13.60;1.00;;;;;;5095969;28;20475;-76
2021/03/10 13:18:58;;;;;;;15.77;7.47;;;13.70;1.00;;;;;;5095051;28;20387;-77